Time;durP1;ratioP1;P1;durP2;ratioP2;P2;SDS_P1;SDS_P2;PMS_P1;PMS_P2;Temp;Humidity;BMP_temperature;BMP_pressure;BME280_temperature;BME280_humidity;BME280_pressure;Samples;Min_cycle;Max_cycle;Signal;HPM_P1;HPM_P2
2022/09/24 00:00:43;;;;;;;10.82;6.97;;;15.90;54.20;;;;;;5054704;28;20036;-76
2022/09/24 00:03:09;;;;;;;9.40;6.57;;;15.80;54.30;;;;;;5053820;28;20089;-77
2022/09/24 00:05:38;;;;;;;11.30;6.45;;;15.70;54.30;;;;;;5053869;28;20029;-77
2022/09/24 00:08:06;;;;;;;9.17;6.80;;;15.70;54.30;;;;;;5050030;28;20021;-76
2022/09/24 00:10:37;;;;;;;9.48;6.18;;;15.60;54.20;;;;;;5070383;28;20513;-77
2022/09/24 00:13:02;;;;;;;9.38;6.50;;;15.60;54.30;;;;;;5063355;28;20463;-76
2022/09/24 00:15:28;;;;;;;10.07;5.68;;;15.40;54.40;;;;;;5071869;28;20021;-79
2022/09/24 00:17:54;;;;;;;10.95;6.07;;;15.30;54.70;;;;;;5055636;28;20091;-80
2022/09/24 00:20:21;;;;;;;8.48;5.65;;;15.20;54.60;;;;;;5063539;28;20422;-79
2022/09/24 00:22:47;;;;;;;10.70;5.85;;;15.10;54.90;;;;;;5071783;28;20106;-78
2022/09/24 00:27:57;;;;;;;8.50;5.72;;;15.20;54.60;;;;;;5060650;28;20070;-78
2022/09/24 00:30:22;;;;;;;8.43;5.97;;;15.30;54.50;;;;;;5067025;28;20028;-79
2022/09/24 00:32:48;;;;;;;9.57;5.95;;;15.20;54.10;;;;;;5054603;28;20024;-81
2022/09/24 00:35:14;;;;;;;9.18;6.43;;;15.20;54.00;;;;;;5053552;28;20029;-81
2022/09/24 00:37:39;;;;;;;8.82;6.13;;;15.10;54.20;;;;;;5054155;28;20089;-77
2022/09/24 00:40:06;;;;;;;9.57;5.65;;;15.00;54.50;;;;;;5072870;28;20024;-80
2022/09/24 00:42:31;;;;;;;8.25;5.60;;;15.10;54.80;;;;;;5054556;28;20020;-81
2022/09/24 00:44:57;;;;;;;8.50;5.53;;;15.10;54.70;;;;;;5054416;28;20357;-76
2022/09/24 00:47:36;;;;;;;9.73;5.90;;;15.00;54.80;;;;;;5071611;28;20456;-77
2022/09/24 00:50:06;;;;;;;8.70;5.45;;;15.10;54.40;;;;;;5054030;28;20377;-77
2022/09/24 00:52:37;;;;;;;7.28;5.10;;;15.10;54.10;;;;;;5072332;28;20028;-77
2022/09/24 00:55:03;;;;;;;;;;;15.20;54.00;;;;;;5054463;28;20404;-77
2022/09/24 00:57:28;;;;;;;7.88;5.28;;;15.10;53.80;;;;;;5054053;28;20421;-77
2022/09/24 00:59:55;;;;;;;9.00;5.60;;;15.10;53.70;;;;;;5071891;28;20121;-77
2022/09/24 01:02:21;;;;;;;10.57;5.32;;;15.10;53.90;;;;;;5075514;28;20028;-77
2022/09/24 01:04:47;;;;;;;8.15;4.95;;;15.20;53.80;;;;;;5057713;28;20031;-77
2022/09/24 01:07:13;;;;;;;9.18;5.72;;;15.20;53.40;;;;;;5075097;28;20028;-77
2022/09/24 01:09:40;;;;;;;7.78;5.38;;;15.10;53.50;;;;;;5075601;28;20024;-77
2022/09/24 01:12:05;;;;;;;8.40;5.65;;;15.10;53.50;;;;;;5073712;28;20453;-78
2022/09/24 01:14:58;;;;;;;7.93;5.10;;;15.10;53.70;;;;;;5056850;28;20514;-76
2022/09/24 01:17:31;;;;;;;8.10;5.45;;;15.10;53.90;;;;;;5048559;28;20032;-76
2022/09/24 01:20:03;;;;;;;8.18;5.40;;;15.20;53.90;;;;;;5055500;28;20021;-77
2022/09/24 01:22:56;;;;;;;7.15;5.05;;;15.30;53.60;;;;;;5053170;28;20085;-77
2022/09/24 01:26:17;;;;;;;8.80;5.68;;;15.30;53.00;;;;;;5074370;28;20029;-77
2022/09/24 01:28:58;;;;;;;8.82;5.75;;;15.20;53.10;;;;;;4987270;28;20034;-76
2022/09/24 01:31:34;;;;;;;8.07;5.38;;;15.00;53.20;;;;;;4993950;28;20557;-77
2022/09/24 01:34:04;;;;;;;7.82;5.25;;;15.00;53.20;;;;;;4993509;28;20084;-78
2022/09/24 01:36:33;;;;;;;8.30;5.50;;;14.70;53.50;;;;;;4993948;28;20034;-79
2022/09/24 01:39:01;;;;;;;8.85;5.20;;;14.70;53.80;;;;;;4994734;28;20065;-81
2022/09/24 01:41:27;;;;;;;9.27;5.53;;;14.70;54.00;;;;;;4994569;28;20026;-80
2022/09/24 01:43:53;;;;;;;8.13;5.72;;;14.70;54.00;;;;;;4994240;28;20057;-78
2022/09/24 01:46:20;;;;;;;7.85;5.40;;;14.60;53.90;;;;;;4996943;28;20354;-78
2022/09/24 01:48:46;;;;;;;11.38;5.68;;;14.50;54.20;;;;;;4994088;28;20053;-79
2022/09/24 01:51:19;;;;;;;9.32;5.45;;;14.40;54.20;;;;;;4993558;28;20038;-79
2022/09/24 01:54:04;;;;;;;10.65;5.32;;;14.40;54.40;;;;;;4998250;28;20092;-80
2022/09/24 01:56:32;;;;;;;8.02;5.53;;;14.50;54.50;;;;;;4975240;28;20088;-79
2022/09/24 01:59:09;;;;;;;8.20;5.25;;;14.40;54.20;;;;;;4987140;28;20086;-80
2022/09/24 02:02:03;;;;;;;7.30;4.70;;;14.40;54.30;;;;;;4974292;28;20105;-76
2022/09/24 02:04:30;;;;;;;7.90;5.03;;;14.40;54.30;;;;;;5029196;28;20059;-76
2022/09/24 02:07:10;;;;;;;7.25;5.25;;;14.50;54.50;;;;;;5055959;28;20123;-77
2022/09/24 02:09:39;;;;;;;10.13;5.40;;;14.60;54.30;;;;;;5055389;28;20475;-77
2022/09/24 02:12:19;;;;;;;8.02;4.78;;;14.30;54.10;;;;;;5055396;28;20119;-77
2022/09/24 02:15:00;;;;;;;8.37;5.60;;;14.30;54.20;;;;;;5073549;28;20052;-76
2022/09/24 02:17:31;;;;;;;7.90;5.13;;;14.40;54.60;;;;;;5073079;28;20037;-76
2022/09/24 02:20:01;;;;;;;8.05;5.25;;;14.40;54.10;;;;;;5055069;28;20379;-77
2022/09/24 02:22:29;;;;;;;8.45;5.40;;;14.40;53.90;;;;;;5054996;28;20032;-77
2022/09/24 02:24:57;;;;;;;8.55;5.22;;;14.40;54.10;;;;;;5056135;28;20020;-77
2022/09/24 02:27:29;;;;;;;9.15;5.00;;;14.30;54.00;;;;;;5072687;28;20487;-77
2022/09/24 02:29:56;;;;;;;9.30;5.72;;;14.30;54.90;;;;;;5055550;28;20028;-76
2022/09/24 02:32:23;;;;;;;9.63;5.95;;;14.30;54.50;;;;;;5073765;28;20024;-80
2022/09/24 02:34:53;;;;;;;13.95;7.68;;;14.20;54.00;;;;;;5073757;28;20043;-76
2022/09/24 02:37:22;;;;;;;27.30;13.13;;;14.20;54.20;;;;;;5056852;28;20125;-80
2022/09/24 02:39:48;;;;;;;26.88;14.23;;;14.20;53.90;;;;;;5074433;28;20041;-79
2022/09/24 02:42:15;;;;;;;31.85;17.63;;;14.00;54.00;;;;;;5073724;28;20036;-79
2022/09/24 02:44:40;;;;;;;27.85;16.23;;;14.00;54.30;;;;;;5074441;28;20374;-77
2022/09/24 02:47:07;;;;;;;21.00;11.60;;;13.90;54.50;;;;;;5073368;28;20061;-79
2022/09/24 02:49:32;;;;;;;24.73;13.45;;;14.10;54.80;;;;;;5073596;28;20020;-80
2022/09/24 02:51:58;;;;;;;17.38;10.77;;;14.00;54.20;;;;;;5073282;28;20029;-79
2022/09/24 02:54:24;;;;;;;19.83;12.65;;;14.00;54.40;;;;;;5072465;28;20025;-78
2022/09/24 02:56:50;;;;;;;23.10;15.90;;;13.80;54.10;;;;;;5074370;28;20029;-80
2022/09/24 02:59:18;;;;;;;24.98;16.67;;;13.90;54.30;;;;;;5074452;28;20490;-79
2022/09/24 03:01:44;;;;;;;24.48;16.98;;;14.00;54.70;;;;;;5056236;28;20024;-79
2022/09/24 03:04:10;;;;;;;25.13;17.27;;;14.00;54.60;;;;;;5056328;28;20105;-79
2022/09/24 03:06:36;;;;;;;19.60;14.38;;;13.90;54.50;;;;;;5055711;28;20052;-76
2022/09/24 03:09:03;;;;;;;17.35;12.45;;;13.90;54.70;;;;;;5073839;28;20040;-80
2022/09/24 03:11:30;;;;;;;13.90;10.05;;;14.00;54.70;;;;;;5056170;28;20031;-79
2022/09/24 03:13:56;;;;;;;14.57;10.60;;;14.10;54.70;;;;;;5055165;28;20028;-79
2022/09/24 03:16:22;;;;;;;13.02;8.93;;;14.10;54.60;;;;;;5074030;28;20029;-79
2022/09/24 03:18:48;;;;;;;13.45;8.98;;;14.00;54.50;;;;;;5071342;28;20380;-78
2022/09/24 03:21:16;;;;;;;11.77;8.38;;;14.10;54.70;;;;;;5055520;28;20032;-76
2022/09/24 03:23:41;;;;;;;11.65;6.97;;;14.00;54.60;;;;;;5073046;28;20116;-80
2022/09/24 03:26:08;;;;;;;9.85;7.03;;;14.10;54.60;;;;;;5054639;28;20450;-79
2022/09/24 03:28:33;;;;;;;9.90;6.80;;;14.10;54.70;;;;;;5052847;28;20036;-81
2022/09/24 03:30:59;;;;;;;8.95;5.95;;;13.80;56.30;;;;;;5072188;28;20025;-77
2022/09/24 03:33:42;;;;;;;11.38;6.95;;;13.70;56.60;;;;;;5055096;28;20111;-77
2022/09/24 03:36:09;;;;;;;8.73;6.40;;;13.80;55.70;;;;;;5052540;28;20468;-77
2022/09/24 03:38:38;;;;;;;8.93;5.97;;;13.90;55.40;;;;;;5044276;28;20079;-78
2022/09/24 03:41:05;;;;;;;7.30;5.30;;;14.00;55.30;;;;;;5071710;28;20028;-78
2022/09/24 03:43:32;;;;;;;12.55;6.38;;;14.00;55.20;;;;;;5054997;28;20471;-77
2022/09/24 03:45:58;;;;;;;9.80;6.10;;;13.90;54.80;;;;;;5071211;28;20025;-78
2022/09/24 03:48:25;;;;;;;8.20;5.70;;;13.80;54.80;;;;;;5072301;28;20376;-76
2022/09/24 03:50:51;;;;;;;10.07;5.93;;;13.60;54.80;;;;;;5051732;28;20123;-78
2022/09/24 03:53:17;;;;;;;8.07;5.47;;;13.70;54.90;;;;;;5054180;28;20087;-77
2022/09/24 03:55:51;;;;;;;9.20;5.43;;;13.80;55.00;;;;;;5054102;28;20435;-77
2022/09/24 03:58:17;;;;;;;7.22;5.40;;;13.80;54.50;;;;;;5072546;28;20043;-78
2022/09/24 04:00:42;;;;;;;8.43;5.60;;;13.60;54.70;;;;;;5051542;28;20025;-76
2022/09/24 04:03:09;;;;;;;10.05;5.40;;;13.50;54.80;;;;;;5072379;28;20044;-77
2022/09/24 04:05:34;;;;;;;8.50;5.05;;;13.50;54.90;;;;;;5072850;28;20020;-77
2022/09/24 04:08:01;;;;;;;8.00;5.63;;;13.60;54.90;;;;;;5072420;28;20028;-77
2022/09/24 04:10:28;;;;;;;7.93;5.25;;;13.60;54.50;;;;;;5072579;28;20017;-78
2022/09/24 04:12:54;;;;;;;8.25;5.30;;;13.50;54.40;;;;;;5072030;28;20024;-79
2022/09/24 04:15:20;;;;;;;8.13;5.80;;;13.50;54.70;;;;;;5072577;28;20020;-78
2022/09/24 04:17:57;;;;;;;8.10;5.60;;;13.50;55.20;;;;;;5072092;28;20025;-76
2022/09/24 04:20:26;;;;;;;9.55;6.30;;;13.40;55.80;;;;;;5053742;28;20021;-78
2022/09/24 04:22:54;;;;;;;9.95;6.32;;;13.20;55.30;;;;;;5054062;28;20387;-77
2022/09/24 04:25:21;;;;;;;11.80;6.60;;;13.20;55.20;;;;;;5053991;28;20056;-78
2022/09/24 04:27:53;;;;;;;10.00;6.03;;;13.20;55.30;;;;;;5070072;28;20402;-79
2022/09/24 04:30:19;;;;;;;11.05;7.28;;;13.10;56.00;;;;;;5072360;28;20448;-79
2022/09/24 04:32:44;;;;;;;11.60;7.80;;;13.20;56.30;;;;;;5072377;28;20548;-77
2022/09/24 04:35:10;;;;;;;14.73;8.40;;;13.30;56.10;;;;;;5072740;28;20025;-79
2022/09/24 04:37:36;;;;;;;10.98;8.00;;;13.40;56.40;;;;;;5076112;28;20036;-77
2022/09/24 04:40:08;;;;;;;11.15;7.53;;;13.40;56.40;;;;;;5076144;28;20108;-76
2022/09/24 04:42:34;;;;;;;12.48;7.00;;;13.30;56.50;;;;;;5075567;28;20017;-77
2022/09/24 04:45:01;;;;;;;16.00;9.13;;;13.60;56.40;;;;;;5057959;28;20025;-77
2022/09/24 04:47:27;;;;;;;14.43;9.68;;;13.70;56.60;;;;;;5068569;28;20460;-79
2022/09/24 04:49:52;;;;;;;14.10;8.55;;;13.80;56.90;;;;;;5057961;28;20147;-79
2022/09/24 04:52:18;;;;;;;13.50;9.15;;;13.80;56.70;;;;;;5057350;28;20029;-81
2022/09/24 04:54:46;;;;;;;15.05;8.30;;;13.90;56.80;;;;;;5055966;28;20119;-76
2022/09/24 04:57:15;;;;;;;13.80;9.38;;;14.00;57.10;;;;;;5074239;28;20025;-79
2022/09/24 04:59:42;;;;;;;13.30;8.77;;;14.00;57.00;;;;;;5073599;28;20024;-79
2022/09/24 05:02:08;;;;;;;15.38;8.45;;;14.00;56.90;;;;;;5056486;28;20033;-77
2022/09/24 05:04:37;;;;;;;12.82;8.63;;;14.10;57.10;;;;;;5048171;28;20364;-76
2022/09/24 05:07:03;;;;;;;13.82;9.23;;;14.20;57.00;;;;;;5074883;28;20022;-77
2022/09/24 05:09:32;;;;;;;15.68;9.00;;;14.30;57.20;;;;;;5075992;28;20028;-79
2022/09/24 05:11:58;;;;;;;14.80;9.60;;;14.40;57.50;;;;;;5075769;28;20021;-80
2022/09/24 05:14:25;;;;;;;16.48;10.57;;;14.50;57.30;;;;;;5058333;28;20024;-79
2022/09/24 05:16:51;;;;;;;20.02;13.63;;;14.60;57.10;;;;;;5058339;28;20390;-78
2022/09/24 05:19:17;;;;;;;21.90;12.93;;;14.60;57.10;;;;;;5057987;28;20131;-77
2022/09/24 05:21:42;;;;;;;18.13;12.05;;;14.70;57.20;;;;;;5075856;28;20074;-78
2022/09/24 05:24:08;;;;;;;16.67;11.07;;;14.80;57.30;;;;;;5075410;28;20028;-77
2022/09/24 05:29:18;;;;;;;17.05;11.18;;;15.10;57.20;;;;;;5075323;28;20085;-76
2022/09/24 05:31:44;;;;;;;14.93;9.88;;;15.30;57.10;;;;;;5057520;28;20032;-81
2022/09/24 05:34:10;;;;;;;16.05;9.70;;;15.30;57.00;;;;;;5058058;28;20119;-81
2022/09/24 05:36:36;;;;;;;17.20;10.05;;;15.40;56.90;;;;;;5058163;28;20070;-81
2022/09/24 05:39:02;;;;;;;17.35;10.70;;;15.50;57.10;;;;;;5075910;28;20025;-81
2022/09/24 05:41:27;;;;;;;16.75;10.30;;;15.60;57.20;;;;;;5057854;28;20052;-80
2022/09/24 05:43:54;;;;;;;16.95;10.00;;;15.70;57.20;;;;;;5075478;28;20062;-80
2022/09/24 05:46:19;;;;;;;26.15;13.68;;;15.90;57.30;;;;;;5075128;28;20067;-79
2022/09/24 05:48:45;;;;;;;23.38;13.90;;;16.00;57.50;;;;;;5072988;28;20562;-78
2022/09/24 05:51:10;;;;;;;22.58;15.05;;;16.20;57.40;;;;;;5056960;28;20102;-79
2022/09/24 05:53:36;;;;;;;21.88;15.43;;;16.30;57.30;;;;;;4372319;28;10000706;-82
2022/09/24 05:56:02;;;;;;;22.08;15.02;;;16.50;57.40;;;;;;5054469;28;20487;-79
2022/09/24 05:58:28;;;;;;;20.88;12.88;;;16.60;57.30;;;;;;5072432;28;20036;-77
2022/09/24 06:00:53;;;;;;;17.23;11.15;;;16.70;56.80;;;;;;5071917;28;20062;-77
2022/09/24 06:03:19;;;;;;;18.50;11.52;;;16.30;57.80;;;;;;5071590;28;20066;-77
2022/09/24 06:05:49;;;;;;;17.38;10.15;;;16.40;58.20;;;;;;5054336;28;20020;-83
2022/09/24 06:08:16;;;;;;;14.87;10.77;;;15.80;57.90;;;;;;5054438;28;20020;-77
2022/09/24 06:10:46;;;;;;;15.00;9.90;;;15.00;60.70;;;;;;5054234;28;20030;-78
2022/09/24 06:13:18;;;;;;;15.93;9.60;;;15.20;60.50;;;;;;5071976;28;20088;-77
2022/09/24 06:15:44;;;;;;;14.60;9.80;;;15.70;59.70;;;;;;5053977;28;20032;-76
2022/09/24 06:18:10;;;;;;;14.77;9.50;;;16.30;58.70;;;;;;5072469;28;20032;-77
2022/09/24 06:20:36;;;;;;;15.88;10.10;;;16.70;58.10;;;;;;5073974;28;20554;-78
2022/09/24 06:23:02;;;;;;;12.38;8.85;;;16.90;57.80;;;;;;5072612;28;20016;-76
2022/09/24 06:25:29;;;;;;;13.48;9.25;;;17.10;57.70;;;;;;5074137;28;20017;-78
2022/09/24 06:28:00;;;;;;;17.58;9.98;;;17.30;57.50;;;;;;5056181;28;20021;-77
2022/09/24 06:30:33;;;;;;;15.55;9.55;;;17.40;57.20;;;;;;5057214;28;20032;-77
2022/09/24 06:33:04;;;;;;;15.65;9.77;;;17.30;57.80;;;;;;5073877;28;20020;-76
2022/09/24 06:35:36;;;;;;;15.90;10.73;;;17.20;58.00;;;;;;5074178;28;20081;-79
2022/09/24 06:38:03;;;;;;;13.50;9.88;;;17.20;58.30;;;;;;5074656;28;20032;-77
2022/09/24 06:40:28;;;;;;;19.75;9.98;;;17.30;58.30;;;;;;5056093;28;20490;-77
2022/09/24 06:42:54;;;;;;;15.65;9.98;;;17.50;58.40;;;;;;5073635;28;20028;-77
2022/09/24 06:45:20;;;;;;;15.23;9.52;;;17.70;57.50;;;;;;5073985;28;20021;-77
2022/09/24 06:47:58;;;;;;;20.80;10.35;;;17.70;57.10;;;;;;5073505;28;20082;-77
2022/09/24 06:50:26;;;;;;;15.57;9.48;;;17.60;58.10;;;;;;5073835;28;20054;-76
2022/09/24 06:52:52;;;;;;;14.05;9.40;;;17.80;57.90;;;;;;5055455;28;20028;-76
2022/09/24 06:55:18;;;;;;;16.45;9.48;;;18.00;57.60;;;;;;5074207;28;20017;-76
2022/09/24 06:57:44;;;;;;;16.23;10.40;;;18.00;57.50;;;;;;5054306;28;20029;-76
2022/09/24 07:00:11;;;;;;;14.95;9.65;;;18.10;57.50;;;;;;5072629;28;20100;-76
2022/09/24 07:02:37;;;;;;;17.33;11.35;;;18.20;57.60;;;;;;5055748;28;20032;-76
2022/09/24 07:05:03;;;;;;;19.88;10.73;;;18.30;57.40;;;;;;5055187;28;20021;-80
2022/09/24 07:07:30;;;;;;;17.73;10.77;;;18.30;58.30;;;;;;5054501;28;20102;-76
2022/09/24 07:09:56;;;;;;;17.50;10.70;;;18.40;57.80;;;;;;5071228;28;20017;-78
2022/09/24 07:12:22;;;;;;;20.58;11.48;;;18.50;58.30;;;;;;5071338;28;20032;-76
2022/09/24 07:14:48;;;;;;;19.45;11.30;;;18.70;57.50;;;;;;5072506;28;20502;-77
2022/09/24 07:17:14;;;;;;;22.35;14.05;;;18.90;57.10;;;;;;5072755;28;20039;-85
2022/09/24 07:19:40;;;;;;;19.85;12.45;;;18.60;56.90;;;;;;5073396;28;20031;-79
2022/09/24 07:22:07;;;;;;;16.42;10.82;;;17.60;58.70;;;;;;5055057;28;20451;-76
2022/09/24 07:24:33;;;;;;;20.25;12.02;;;17.00;60.70;;;;;;5072874;28;20016;-77
2022/09/24 07:26:59;;;;;;;22.05;12.38;;;17.40;60.70;;;;;;5055392;28;20036;-76
2022/09/24 07:29:25;;;;;;;23.00;11.63;;;17.90;59.60;;;;;;5073005;28;20071;-76
2022/09/24 07:31:50;;;;;;;20.27;12.25;;;18.40;59.00;;;;;;5072650;28;20025;-77
2022/09/24 07:34:16;;;;;;;37.80;34.17;;;18.70;57.90;;;;;;5055445;28;20028;-77
2022/09/24 07:36:42;;;;;;;35.92;32.60;;;18.80;58.30;;;;;;5055004;28;20020;-76
2022/09/24 07:39:08;;;;;;;16.88;12.63;;;18.90;58.20;;;;;;5072456;28;20021;-82
2022/09/24 07:41:34;;;;;;;22.65;18.60;;;19.00;58.10;;;;;;5055398;28;20388;-78
2022/09/24 07:44:00;;;;;;;19.13;13.38;;;18.90;58.70;;;;;;5073266;28;20024;-77
2022/09/24 07:46:26;;;;;;;18.33;12.10;;;19.20;58.50;;;;;;5055274;28;20111;-78
2022/09/24 07:48:55;;;;;;;17.80;12.15;;;19.00;57.50;;;;;;5054507;28;20126;-76
2022/09/24 07:51:21;;;;;;;17.02;12.20;;;19.00;58.30;;;;;;5072813;28;20017;-78
2022/09/24 07:53:47;;;;;;;18.58;12.45;;;18.80;57.90;;;;;;5055154;28;20020;-76
2022/09/24 07:56:14;;;;;;;18.08;12.98;;;18.10;58.80;;;;;;5072650;28;20472;-76
2022/09/24 07:58:39;;;;;;;20.92;12.93;;;17.60;60.30;;;;;;5072659;28;20041;-76
2022/09/24 08:01:05;;;;;;;19.70;12.57;;;18.10;59.70;;;;;;5073388;28;20085;-79
2022/09/24 08:03:31;;;;;;;17.92;12.93;;;17.70;60.50;;;;;;5054841;28;20111;-78
2022/09/24 08:05:58;;;;;;;19.77;13.10;;;17.60;61.60;;;;;;5054647;28;20017;-77
2022/09/24 08:08:25;;;;;;;21.40;14.00;;;17.90;61.20;;;;;;5054751;28;20029;-78
2022/09/24 08:10:51;;;;;;;19.70;13.30;;;18.70;59.90;;;;;;5071836;28;20091;-76
2022/09/24 08:13:17;;;;;;;20.40;13.52;;;19.40;59.00;;;;;;5072872;28;20104;-80
2022/09/24 08:15:43;;;;;;;18.53;12.30;;;19.50;58.30;;;;;;4354742;28;10021511;-81
2022/09/24 08:18:09;;;;;;;19.85;13.25;;;19.60;56.70;;;;;;5071158;28;20043;-77
2022/09/24 08:20:36;;;;;;;18.15;12.90;;;19.60;58.50;;;;;;5054892;28;20479;-78
2022/09/24 08:23:04;;;;;;;18.88;13.38;;;19.80;57.40;;;;;;5072522;28;20032;-77
2022/09/24 08:25:30;;;;;;;21.88;13.65;;;20.10;56.50;;;;;;5072336;28;20013;-84
2022/09/24 08:28:03;;;;;;;19.85;14.13;;;20.10;56.30;;;;;;5072508;28;20107;-78
2022/09/24 08:30:29;;;;;;;19.75;14.50;;;19.80;56.60;;;;;;5072554;28;20035;-83
2022/09/24 08:32:56;;;;;;;20.42;14.07;;;19.40;56.90;;;;;;5054580;28;20023;-83
2022/09/24 08:35:22;;;;;;;20.50;14.57;;;18.40;58.50;;;;;;5054793;28;20032;-81
2022/09/24 08:37:48;;;;;;;23.42;16.27;;;18.10;60.10;;;;;;5072682;28;20115;-79
2022/09/24 08:40:18;;;;;;;19.17;14.43;;;18.20;59.80;;;;;;5054613;28;20429;-79
2022/09/24 08:42:54;;;;;;;22.23;14.13;;;18.00;60.50;;;;;;5055164;28;20035;-86
2022/09/24 08:48:19;;;;;;;19.75;14.75;;;18.50;60.90;;;;;;5072913;28;20109;-77
2022/09/24 08:50:59;;;;;;;22.00;14.25;;;19.10;59.20;;;;;;5072057;28;20024;-77
2022/09/24 08:53:34;;;;;;;24.20;15.25;;;18.90;59.40;;;;;;5072283;28;20020;-76
2022/09/24 08:56:00;;;;;;;23.00;15.07;;;19.20;58.70;;;;;;5054121;28;20025;-85
2022/09/24 08:58:43;;;;;;;18.23;14.35;;;19.60;58.10;;;;;;5055098;28;20070;-79
2022/09/24 09:01:09;;;;;;;20.10;14.20;;;19.40;57.70;;;;;;5054865;28;20529;-78
2022/09/24 09:03:37;;;;;;;24.00;14.30;;;19.10;59.10;;;;;;5072031;28;20016;-80
2022/09/24 09:06:09;;;;;;;21.40;14.27;;;19.30;59.00;;;;;;5072464;28;20025;-78
2022/09/24 09:08:48;;;;;;;20.33;14.93;;;19.60;57.30;;;;;;5054725;28;20038;-78
2022/09/24 09:11:16;;;;;;;20.27;13.80;;;19.60;57.70;;;;;;5054383;28;20159;-77
2022/09/24 09:13:51;;;;;;;20.33;14.35;;;19.90;56.10;;;;;;5072170;28;20021;-80
2022/09/24 09:16:17;;;;;;;29.80;14.32;;;20.10;56.00;;;;;;5054559;28;20029;-78
2022/09/24 09:18:46;;;;;;;24.77;14.43;;;20.60;55.50;;;;;;5072710;28;20074;-77
2022/09/24 09:21:17;;;;;;;20.40;13.18;;;20.80;54.70;;;;;;5054736;28;20178;-78
2022/09/24 09:23:52;;;;;;;20.42;13.85;;;20.80;54.60;;;;;;5057037;28;20021;-77
2022/09/24 09:26:21;;;;;;;21.55;13.00;;;20.80;54.80;;;;;;5057803;28;20020;-79
2022/09/24 09:28:54;;;;;;;17.38;12.63;;;21.20;54.40;;;;;;5057725;28;20028;-79
2022/09/24 09:31:34;;;;;;;16.33;11.23;;;21.30;53.60;;;;;;5075315;28;20029;-82
2022/09/24 09:34:28;;;;;;;21.17;12.52;;;21.40;53.90;;;;;;5058590;28;20106;-78
2022/09/24 09:37:09;;;;;;;16.83;12.00;;;21.00;53.80;;;;;;5057867;28;20433;-77
2022/09/24 09:39:56;;;;;;;17.15;11.45;;;21.10;54.30;;;;;;5057888;28;20123;-79
2022/09/24 09:42:32;;;;;;;16.42;11.13;;;21.10;53.70;;;;;;5075507;28;20024;-81
2022/09/24 09:45:36;;;;;;;14.90;10.38;;;21.00;53.50;;;;;;5069305;28;20060;-84
2022/09/24 09:48:03;;;;;;;16.83;11.27;;;21.20;52.70;;;;;;4997125;28;20533;-84
2022/09/24 09:50:36;;;;;;;12.93;9.80;;;21.00;53.40;;;;;;4995531;28;20033;-78
2022/09/24 09:53:03;;;;;;;18.45;9.82;;;21.20;53.90;;;;;;5013595;28;20036;-88
2022/09/24 09:55:34;;;;;;;15.95;10.50;;;22.10;52.80;;;;;;4997550;28;20030;-79
2022/09/24 09:58:08;;;;;;;;;;;22.10;51.80;;;;;;4997609;28;20128;-79
2022/09/24 10:00:35;;;;;;;12.93;8.77;;;21.50;51.60;;;;;;5013781;28;19973;-80
2022/09/24 10:03:02;;;;;;;14.30;8.65;;;21.60;53.30;;;;;;5013400;28;20034;-80
2022/09/24 10:05:29;;;;;;;12.07;7.40;;;21.90;52.00;;;;;;4996559;28;20028;-84
2022/09/24 10:07:56;;;;;;;11.65;7.32;;;22.40;50.50;;;;;;5012423;28;20449;-80
2022/09/24 10:10:27;;;;;;;9.20;5.90;;;22.60;50.20;;;;;;5012560;28;20026;-79
2022/09/24 10:13:11;;;;;;;13.10;6.38;;;22.30;49.20;;;;;;4993195;28;20481;-83
2022/09/24 10:15:55;;;;;;;10.10;6.65;;;22.00;50.80;;;;;;5006498;28;20036;-89
2022/09/24 10:18:50;;;;;;;8.30;4.78;;;21.80;50.10;;;;;;4995645;28;20041;-77
2022/09/24 10:21:31;;;;;;;8.90;5.60;;;21.70;50.20;;;;;;5014366;28;20067;-81
2022/09/24 10:24:03;;;;;;;8.73;5.43;;;22.20;49.90;;;;;;5048545;28;20111;-80
2022/09/24 10:26:37;;;;;;;7.10;4.30;;;22.00;49.50;;;;;;5051447;28;20017;-81
2022/09/24 10:31:48;;;;;;;9.20;4.93;;;22.20;49.20;;;;;;5054707;28;20622;-78
2022/09/24 10:34:27;;;;;;;7.85;4.90;;;22.60;48.50;;;;;;5052762;28;20021;-77
2022/09/24 10:36:59;;;;;;;8.18;5.03;;;22.70;47.40;;;;;;5053348;28;20052;-90
2022/09/24 10:39:25;;;;;;;8.82;5.10;;;22.60;47.80;;;;;;5053217;28;20029;-84
2022/09/24 10:41:52;;;;;;;8.20;5.07;;;22.30;48.00;;;;;;5053558;28;20025;-80
2022/09/24 10:44:20;;;;;;;8.63;4.90;;;22.10;47.90;;;;;;5054486;28;20436;-79
2022/09/24 10:47:03;;;;;;;7.68;5.35;;;22.10;48.80;;;;;;5054067;28;20115;-79
2022/09/24 10:50:01;;;;;;;9.10;5.40;;;22.10;48.20;;;;;;5054535;28;20052;-78
2022/09/24 10:52:47;;;;;;;9.50;5.50;;;22.30;49.10;;;;;;5054405;28;20021;-77
2022/09/24 10:55:13;;;;;;;8.38;5.28;;;22.70;48.20;;;;;;5054165;28;20039;-77
2022/09/24 10:57:54;;;;;;;9.20;5.47;;;23.00;47.60;;;;;;5053428;28;20037;-83
2022/09/24 11:00:23;;;;;;;9.23;5.30;;;23.10;47.00;;;;;;5051753;28;20379;-77
2022/09/24 11:03:26;;;;;;;8.40;5.20;;;22.70;47.10;;;;;;5053568;28;20032;-79
2022/09/24 11:06:20;;;;;;;8.07;5.10;;;22.40;48.10;;;;;;5047535;28;20025;-86
2022/09/24 11:09:11;;;;;;;9.07;5.55;;;22.00;47.80;;;;;;5051796;28;20039;-86
2022/09/24 11:11:59;;;;;;;7.28;5.00;;;22.60;47.20;;;;;;5052587;28;20376;-87
2022/09/24 11:14:53;;;;;;;7.50;4.80;;;22.90;47.60;;;;;;5052072;28;20486;-83
2022/09/24 11:17:31;;;;;;;10.93;5.68;;;23.30;47.30;;;;;;5051988;28;20032;-81
2022/09/24 11:20:05;;;;;;;9.95;4.85;;;23.70;46.50;;;;;;5051905;28;20056;-81
2022/09/24 11:22:49;;;;;;;6.43;4.22;;;23.70;46.40;;;;;;5051941;28;20468;-85
2022/09/24 11:25:47;;;;;;;8.93;4.25;;;23.90;46.30;;;;;;5052154;28;20024;-79
2022/09/24 11:28:34;;;;;;;6.15;3.83;;;24.00;46.10;;;;;;4991363;28;20105;-80
2022/09/24 11:31:40;;;;;;;6.45;4.32;;;24.10;45.60;;;;;;4992299;28;20105;-79
2022/09/24 11:34:26;;;;;;;6.05;4.05;;;23.70;46.20;;;;;;4952633;29;20376;-77
2022/09/24 11:37:06;;;;;;;6.82;4.05;;;23.70;46.50;;;;;;4949731;28;20043;-80
2022/09/24 11:39:37;;;;;;;7.97;4.28;;;23.50;46.50;;;;;;4951338;28;20042;-84
2022/09/24 11:42:11;;;;;;;8.05;3.45;;;23.60;46.60;;;;;;4951242;29;20041;-79
2022/09/24 11:45:30;;;;;;;13.40;3.40;;;23.50;46.60;;;;;;4950645;28;20090;-79
2022/09/24 11:48:01;;;;;;;5.85;3.58;;;23.60;47.30;;;;;;4928508;29;20039;-80
2022/09/24 11:50:41;;;;;;;5.72;3.65;;;23.40;47.50;;;;;;4927667;29;20028;-82
2022/09/24 11:53:11;;;;;;;5.43;3.55;;;23.50;47.90;;;;;;4932262;29;20036;-79
2022/09/24 11:55:44;;;;;;;5.75;3.28;;;23.30;46.70;;;;;;4917083;29;20068;-79
2022/09/24 11:58:28;;;;;;;6.55;4.10;;;23.60;47.00;;;;;;4916305;29;20081;-79
2022/09/24 12:00:58;;;;;;;5.15;3.33;;;23.70;46.80;;;;;;4916947;29;20542;-79
2022/09/24 12:03:32;;;;;;;;;;;24.20;46.90;;;;;;4929329;28;20035;-78
2022/09/24 12:06:12;;;;;;;6.32;3.35;;;24.40;46.50;;;;;;4970724;28;19913;-80
2022/09/24 12:08:53;;;;;;;58.33;5.47;;;24.00;46.40;;;;;;4972448;28;20037;-77
2022/09/24 12:11:53;;;;;;;7.50;3.00;;;24.00;46.80;;;;;;4970228;28;20037;-79
2022/09/24 12:14:23;;;;;;;4.72;3.00;;;24.60;45.60;;;;;;4973560;28;20386;-78
2022/09/24 12:17:04;;;;;;;8.48;3.30;;;24.60;45.40;;;;;;4990153;28;20062;-77
2022/09/24 12:19:50;;;;;;;8.88;3.30;;;24.60;46.30;;;;;;4971561;28;20188;-78
2022/09/24 12:22:18;;;;;;;8.43;3.20;;;24.70;45.00;;;;;;4990670;28;20027;-78
2022/09/24 12:24:51;;;;;;;7.97;3.10;;;24.80;45.20;;;;;;5029487;28;20044;-77
2022/09/24 12:27:23;;;;;;;48.50;5.38;;;24.60;45.30;;;;;;5051185;28;20025;-81
2022/09/24 12:33:28;;;;;;;8.43;3.20;;;24.60;45.70;;;;;;5046787;28;20166;-79
2022/09/24 12:36:03;;;;;;;10.88;3.50;;;24.50;45.70;;;;;;5048898;28;20033;-75
2022/09/24 12:38:34;;;;;;;5.20;2.90;;;24.00;46.00;;;;;;5046990;28;20033;-77
2022/09/24 12:41:28;;;;;;;6.40;3.10;;;23.70;46.40;;;;;;5051053;28;20021;-77
2022/09/24 12:44:00;;;;;;;6.03;3.65;;;23.70;46.40;;;;;;5043414;28;20025;-77
2022/09/24 12:46:31;;;;;;;6.78;4.03;;;24.10;46.60;;;;;;5050289;28;20059;-76
2022/09/24 12:48:57;;;;;;;5.43;3.35;;;24.00;46.20;;;;;;5056188;28;20538;-80
2022/09/24 12:51:31;;;;;;;5.82;3.20;;;23.80;46.20;;;;;;5052188;28;20395;-82
2022/09/24 12:54:04;;;;;;;4.78;3.15;;;23.60;47.10;;;;;;5054239;28;20050;-85
2022/09/24 12:56:31;;;;;;;6.80;3.17;;;23.70;46.70;;;;;;5073381;28;20025;-84
2022/09/24 12:58:57;;;;;;;7.40;3.88;;;24.30;46.50;;;;;;5076284;28;20033;-88
2022/09/24 13:01:22;;;;;;;6.07;3.50;;;24.60;45.80;;;;;;5057712;28;20372;-79
2022/09/24 13:04:04;;;;;;;7.22;3.50;;;24.60;46.20;;;;;;5075040;28;20548;-86
2022/09/24 13:06:34;;;;;;;6.85;3.13;;;24.10;46.50;;;;;;5056423;28;20292;-77
2022/09/24 13:09:01;;;;;;;12.60;3.38;;;24.20;46.90;;;;;;5057741;28;20537;-76
2022/09/24 13:11:29;;;;;;;7.00;2.85;;;24.50;46.80;;;;;;5075790;28;20036;-78